sensor_id;sensor_type;location;lat;lon;timestamp;temperature;humidity
20700;DHT22;10511;51.232;9.420;2023-03-14T00:02:20;10.10;99.90
20700;DHT22;10511;51.232;9.420;2023-03-14T00:04:47;10.10;99.90
20700;DHT22;10511;51.232;9.420;2023-03-14T00:07:16;10.10;99.90
20700;DHT22;10511;51.232;9.420;2023-03-14T00:09:42;10.00;99.90
20700;DHT22;10511;51.232;9.420;2023-03-14T00:12:09;10.00;99.90
20700;DHT22;10511;51.232;9.420;2023-03-14T00:14:36;9.80;99.90
20700;DHT22;10511;51.232;9.420;2023-03-14T00:17:03;9.80;99.90
20700;DHT22;10511;51.232;9.420;2023-03-14T00:19:30;9.80;99.90
20700;DHT22;10511;51.232;9.420;2023-03-14T00:21:56;9.80;99.90
20700;DHT22;10511;51.232;9.420;2023-03-14T00:24:25;9.80;99.90
20700;DHT22;10511;51.232;9.420;2023-03-14T00:26:51;9.80;99.90
20700;DHT22;10511;51.232;9.420;2023-03-14T00:29:18;9.90;99.90
20700;DHT22;10511;51.232;9.420;2023-03-14T00:31:45;9.90;99.90
20700;DHT22;10511;51.232;9.420;2023-03-14T00:34:12;9.90;99.90
20700;DHT22;10511;51.232;9.420;2023-03-14T00:36:39;10.00;99.90
20700;DHT22;10511;51.232;9.420;2023-03-14T00:39:05;10.00;99.90
20700;DHT22;10511;51.232;9.420;2023-03-14T00:41:34;10.00;99.90
20700;DHT22;10511;51.232;9.420;2023-03-14T00:44:00;10.00;99.90
20700;DHT22;10511;51.232;9.420;2023-03-14T00:46:27;10.00;99.90
20700;DHT22;10511;51.232;9.420;2023-03-14T00:48:54;10.00;99.90
20700;DHT22;10511;51.232;9.420;2023-03-14T00:51:21;9.90;99.90
20700;DHT22;10511;51.232;9.420;2023-03-14T00:53:48;9.90;99.90
20700;DHT22;10511;51.232;9.420;2023-03-14T00:56:14;9.80;99.90
20700;DHT22;10511;51.232;9.420;2023-03-14T00:58:43;9.80;99.90
20700;DHT22;10511;51.232;9.420;2023-03-14T01:01:13;9.80;99.90
20700;DHT22;10511;51.232;9.420;2023-03-14T01:03:40;9.80;99.90
20700;DHT22;10511;51.232;9.420;2023-03-14T01:06:10;9.80;99.90
20700;DHT22;10511;51.232;9.420;2023-03-14T01:08:37;9.80;99.90
20700;DHT22;10511;51.232;9.420;2023-03-14T01:11:08;9.80;99.90
20700;DHT22;10511;51.232;9.420;2023-03-14T01:13:35;9.80;99.90
20700;DHT22;10511;51.232;9.420;2023-03-14T01:16:06;9.80;99.90
20700;DHT22;10511;51.232;9.420;2023-03-14T01:18:34;9.80;99.90
20700;DHT22;10511;51.232;9.420;2023-03-14T01:21:01;9.80;99.90
20700;DHT22;10511;51.232;9.420;2023-03-14T01:23:28;9.80;99.90
20700;DHT22;10511;51.232;9.420;2023-03-14T01:25:55;9.80;99.90
20700;DHT22;10511;51.232;9.420;2023-03-14T01:28:22;9.80;99.90
20700;DHT22;10511;51.232;9.420;2023-03-14T01:30:49;9.80;99.90
20700;DHT22;10511;51.232;9.420;2023-03-14T01:33:17;9.80;99.90
20700;DHT22;10511;51.232;9.420;2023-03-14T01:35:44;9.80;99.90
20700;DHT22;10511;51.232;9.420;2023-03-14T01:38:11;9.80;99.90
20700;DHT22;10511;51.232;9.420;2023-03-14T01:40:42;9.80;99.90
20700;DHT22;10511;51.232;9.420;2023-03-14T01:43:14;9.80;99.90
20700;DHT22;10511;51.232;9.420;2023-03-14T01:48:50;9.70;99.90
20700;DHT22;10511;51.232;9.420;2023-03-14T01:51:23;9.70;99.90
20700;DHT22;10511;51.232;9.420;2023-03-14T01:53:53;9.70;99.90
20700;DHT22;10511;51.232;9.420;2023-03-14T01:56:21;9.70;99.90
20700;DHT22;10511;51.232;9.420;2023-03-14T01:58:50;9.70;99.90
20700;DHT22;10511;51.232;9.420;2023-03-14T02:01:20;9.70;99.90
20700;DHT22;10511;51.232;9.420;2023-03-14T02:03:52;9.70;99.90
20700;DHT22;10511;51.232;9.420;2023-03-14T02:06:24;9.70;99.90
20700;DHT22;10511;51.232;9.420;2023-03-14T02:08:51;9.70;99.90
20700;DHT22;10511;51.232;9.420;2023-03-14T02:11:19;9.70;99.90
20700;DHT22;10511;51.232;9.420;2023-03-14T02:13:46;9.60;99.90
20700;DHT22;10511;51.232;9.420;2023-03-14T02:16:13;9.70;99.90
20700;DHT22;10511;51.232;9.420;2023-03-14T02:18:40;9.60;99.90
20700;DHT22;10511;51.232;9.420;2023-03-14T02:21:15;9.70;99.90
20700;DHT22;10511;51.232;9.420;2023-03-14T02:23:48;9.70;99.90
20700;DHT22;10511;51.232;9.420;2023-03-14T02:26:22;9.70;99.90
20700;DHT22;10511;51.232;9.420;2023-03-14T02:28:53;9.70;99.90
20700;DHT22;10511;51.232;9.420;2023-03-14T02:31:22;9.70;99.90
20700;DHT22;10511;51.232;9.420;2023-03-14T02:33:49;9.70;99.90
20700;DHT22;10511;51.232;9.420;2023-03-14T02:36:19;9.70;99.90
20700;DHT22;10511;51.232;9.420;2023-03-14T02:38:49;9.60;99.90
20700;DHT22;10511;51.232;9.420;2023-03-14T02:41:18;9.70;99.90
20700;DHT22;10511;51.232;9.420;2023-03-14T02:43:45;9.60;99.90
20700;DHT22;10511;51.232;9.420;2023-03-14T02:46:14;9.60;99.90
20700;DHT22;10511;51.232;9.420;2023-03-14T02:48:45;9.70;99.90
20700;DHT22;10511;51.232;9.420;2023-03-14T02:51:14;9.70;99.90
20700;DHT22;10511;51.232;9.420;2023-03-14T02:53:41;9.60;99.90
20700;DHT22;10511;51.232;9.420;2023-03-14T02:56:09;9.50;99.90
20700;DHT22;10511;51.232;9.420;2023-03-14T02:58:37;9.50;99.90
20700;DHT22;10511;51.232;9.420;2023-03-14T03:01:05;9.40;99.90
20700;DHT22;10511;51.232;9.420;2023-03-14T03:03:33;9.40;99.90
20700;DHT22;10511;51.232;9.420;2023-03-14T03:06:01;9.40;99.90
20700;DHT22;10511;51.232;9.420;2023-03-14T03:08:28;9.40;99.90
20700;DHT22;10511;51.232;9.420;2023-03-14T03:10:57;9.40;99.90
20700;DHT22;10511;51.232;9.420;2023-03-14T03:13:24;9.40;99.90
20700;DHT22;10511;51.232;9.420;2023-03-14T03:15:52;9.40;99.90
20700;DHT22;10511;51.232;9.420;2023-03-14T03:18:19;9.40;99.90
20700;DHT22;10511;51.232;9.420;2023-03-14T03:20:48;9.40;99.90
20700;DHT22;10511;51.232;9.420;2023-03-14T03:23:14;9.40;99.90
20700;DHT22;10511;51.232;9.420;2023-03-14T03:25:41;9.40;99.90
20700;DHT22;10511;51.232;9.420;2023-03-14T03:28:08;9.40;99.90
20700;DHT22;10511;51.232;9.420;2023-03-14T03:30:37;9.40;99.90
20700;DHT22;10511;51.232;9.420;2023-03-14T03:33:04;9.40;99.90
20700;DHT22;10511;51.232;9.420;2023-03-14T03:35:31;9.40;99.90
20700;DHT22;10511;51.232;9.420;2023-03-14T03:38:00;9.40;99.90
20700;DHT22;10511;51.232;9.420;2023-03-14T03:40:27;9.30;99.90
20700;DHT22;10511;51.232;9.420;2023-03-14T03:42:53;9.40;99.90
20700;DHT22;10511;51.232;9.420;2023-03-14T03:45:20;9.40;99.90
20700;DHT22;10511;51.232;9.420;2023-03-14T03:47:47;9.30;99.90
20700;DHT22;10511;51.232;9.420;2023-03-14T03:50:14;9.30;99.90
20700;DHT22;10511;51.232;9.420;2023-03-14T03:52:41;9.20;99.90
20700;DHT22;10511;51.232;9.420;2023-03-14T03:55:09;9.20;99.90
20700;DHT22;10511;51.232;9.420;2023-03-14T03:57:36;9.20;99.90
20700;DHT22;10511;51.232;9.420;2023-03-14T04:00:04;9.20;99.90
20700;DHT22;10511;51.232;9.420;2023-03-14T04:02:32;9.20;99.90
20700;DHT22;10511;51.232;9.420;2023-03-14T04:04:58;9.20;99.90
20700;DHT22;10511;51.232;9.420;2023-03-14T04:07:25;9.20;99.90
20700;DHT22;10511;51.232;9.420;2023-03-14T04:09:53;9.20;99.90
20700;DHT22;10511;51.232;9.420;2023-03-14T04:12:21;9.20;99.90
20700;DHT22;10511;51.232;9.420;2023-03-14T04:14:48;9.20;99.90
20700;DHT22;10511;51.232;9.420;2023-03-14T04:17:14;9.20;99.90
20700;DHT22;10511;51.232;9.420;2023-03-14T04:19:41;9.20;99.90
20700;DHT22;10511;51.232;9.420;2023-03-14T04:22:08;9.30;99.90
20700;DHT22;10511;51.232;9.420;2023-03-14T04:24:35;9.30;99.90
20700;DHT22;10511;51.232;9.420;2023-03-14T04:27:02;9.40;99.90
20700;DHT22;10511;51.232;9.420;2023-03-14T04:29:30;9.40;99.90
20700;DHT22;10511;51.232;9.420;2023-03-14T04:31:57;9.40;99.90
20700;DHT22;10511;51.232;9.420;2023-03-14T04:34:24;9.40;99.90
20700;DHT22;10511;51.232;9.420;2023-03-14T04:36:51;9.30;99.90
20700;DHT22;10511;51.232;9.420;2023-03-14T04:39:17;9.30;99.90
20700;DHT22;10511;51.232;9.420;2023-03-14T04:41:45;9.30;99.90
20700;DHT22;10511;51.232;9.420;2023-03-14T04:44:12;9.30;99.90
20700;DHT22;10511;51.232;9.420;2023-03-14T04:46:40;9.30;99.90
20700;DHT22;10511;51.232;9.420;2023-03-14T04:49:07;9.30;99.90
20700;DHT22;10511;51.232;9.420;2023-03-14T04:51:34;9.30;99.90
20700;DHT22;10511;51.232;9.420;2023-03-14T04:54:00;9.30;99.90
20700;DHT22;10511;51.232;9.420;2023-03-14T04:56:27;9.30;99.90
20700;DHT22;10511;51.232;9.420;2023-03-14T04:58:54;9.20;99.90
20700;DHT22;10511;51.232;9.420;2023-03-14T05:01:21;9.10;99.90
20700;DHT22;10511;51.232;9.420;2023-03-14T05:03:50;9.10;99.90
20700;DHT22;10511;51.232;9.420;2023-03-14T05:06:17;9.00;99.90
20700;DHT22;10511;51.232;9.420;2023-03-14T05:08:44;9.00;99.90
20700;DHT22;10511;51.232;9.420;2023-03-14T05:11:11;9.00;99.90
20700;DHT22;10511;51.232;9.420;2023-03-14T05:13:38;9.00;99.90
20700;DHT22;10511;51.232;9.420;2023-03-14T05:16:07;9.00;99.90
20700;DHT22;10511;51.232;9.420;2023-03-14T05:18:35;9.00;99.90
20700;DHT22;10511;51.232;9.420;2023-03-14T05:21:04;9.10;99.90
20700;DHT22;10511;51.232;9.420;2023-03-14T05:23:31;9.10;99.90
20700;DHT22;10511;51.232;9.420;2023-03-14T05:25:57;9.20;99.90
20700;DHT22;10511;51.232;9.420;2023-03-14T05:28:24;9.20;99.90
20700;DHT22;10511;51.232;9.420;2023-03-14T05:30:51;9.20;99.90
20700;DHT22;10511;51.232;9.420;2023-03-14T05:33:18;9.20;99.90
20700;DHT22;10511;51.232;9.420;2023-03-14T05:35:45;9.20;99.90
20700;DHT22;10511;51.232;9.420;2023-03-14T05:38:14;9.20;99.90
20700;DHT22;10511;51.232;9.420;2023-03-14T05:40:40;9.20;99.90
20700;DHT22;10511;51.232;9.420;2023-03-14T05:43:07;9.10;99.90
20700;DHT22;10511;51.232;9.420;2023-03-14T05:45:35;9.00;99.90
20700;DHT22;10511;51.232;9.420;2023-03-14T05:48:03;9.10;99.90
20700;DHT22;10511;51.232;9.420;2023-03-14T05:50:29;9.10;99.90
20700;DHT22;10511;51.232;9.420;2023-03-14T05:52:56;9.00;99.90
20700;DHT22;10511;51.232;9.420;2023-03-14T05:55:25;9.00;99.90
20700;DHT22;10511;51.232;9.420;2023-03-14T05:57:52;9.00;99.90
20700;DHT22;10511;51.232;9.420;2023-03-14T06:00:20;9.00;99.90
20700;DHT22;10511;51.232;9.420;2023-03-14T06:02:47;9.00;99.90
20700;DHT22;10511;51.232;9.420;2023-03-14T06:05:14;9.10;99.90
20700;DHT22;10511;51.232;9.420;2023-03-14T06:07:41;9.10;99.90
20700;DHT22;10511;51.232;9.420;2023-03-14T06:10:09;9.10;99.90
20700;DHT22;10511;51.232;9.420;2023-03-14T06:12:37;9.10;99.90
20700;DHT22;10511;51.232;9.420;2023-03-14T06:15:05;9.10;99.90
20700;DHT22;10511;51.232;9.420;2023-03-14T06:17:32;9.10;99.90
20700;DHT22;10511;51.232;9.420;2023-03-14T06:19:59;9.10;99.90
20700;DHT22;10511;51.232;9.420;2023-03-14T06:22:26;9.10;99.90
20700;DHT22;10511;51.232;9.420;2023-03-14T06:24:53;9.20;99.90
20700;DHT22;10511;51.232;9.420;2023-03-14T06:27:19;9.10;99.90
20700;DHT22;10511;51.232;9.420;2023-03-14T06:29:48;9.20;99.90
20700;DHT22;10511;51.232;9.420;2023-03-14T06:32:14;9.10;99.90
20700;DHT22;10511;51.232;9.420;2023-03-14T06:34:41;9.10;99.90
20700;DHT22;10511;51.232;9.420;2023-03-14T06:37:08;9.10;99.90
20700;DHT22;10511;51.232;9.420;2023-03-14T06:39:35;9.10;99.90
20700;DHT22;10511;51.232;9.420;2023-03-14T06:42:04;9.10;99.90
20700;DHT22;10511;51.232;9.420;2023-03-14T06:44:31;9.20;99.90
20700;DHT22;10511;51.232;9.420;2023-03-14T06:46:59;9.20;99.90
20700;DHT22;10511;51.232;9.420;2023-03-14T06:49:26;9.20;99.90
20700;DHT22;10511;51.232;9.420;2023-03-14T06:51:54;9.20;99.90
20700;DHT22;10511;51.232;9.420;2023-03-14T06:54:21;9.30;99.90
20700;DHT22;10511;51.232;9.420;2023-03-14T06:56:47;9.30;99.90
20700;DHT22;10511;51.232;9.420;2023-03-14T06:59:14;9.30;99.90
20700;DHT22;10511;51.232;9.420;2023-03-14T07:01:41;9.30;99.90
20700;DHT22;10511;51.232;9.420;2023-03-14T07:04:10;9.30;99.90
20700;DHT22;10511;51.232;9.420;2023-03-14T07:06:37;9.40;99.90
20700;DHT22;10511;51.232;9.420;2023-03-14T07:09:05;9.40;99.90
20700;DHT22;10511;51.232;9.420;2023-03-14T07:11:32;9.40;99.90
20700;DHT22;10511;51.232;9.420;2023-03-14T07:14:00;9.40;99.90
20700;DHT22;10511;51.232;9.420;2023-03-14T07:16:26;9.40;99.90
20700;DHT22;10511;51.232;9.420;2023-03-14T07:18:56;9.40;99.90
20700;DHT22;10511;51.232;9.420;2023-03-14T07:21:25;9.40;99.90
20700;DHT22;10511;51.232;9.420;2023-03-14T07:23:52;9.40;99.90
20700;DHT22;10511;51.232;9.420;2023-03-14T07:26:18;9.40;99.90
20700;DHT22;10511;51.232;9.420;2023-03-14T07:28:45;9.50;99.90
20700;DHT22;10511;51.232;9.420;2023-03-14T07:31:12;9.50;99.90
20700;DHT22;10511;51.232;9.420;2023-03-14T07:33:39;9.50;99.90
20700;DHT22;10511;51.232;9.420;2023-03-14T07:36:07;9.40;99.90
20700;DHT22;10511;51.232;9.420;2023-03-14T07:38:35;9.40;99.90
20700;DHT22;10511;51.232;9.420;2023-03-14T07:41:04;9.40;99.90
20700;DHT22;10511;51.232;9.420;2023-03-14T07:43:32;9.40;99.90
20700;DHT22;10511;51.232;9.420;2023-03-14T07:45:59;9.40;99.90
20700;DHT22;10511;51.232;9.420;2023-03-14T07:48:26;9.40;99.90
20700;DHT22;10511;51.232;9.420;2023-03-14T07:50:54;9.40;99.90
20700;DHT22;10511;51.232;9.420;2023-03-14T07:53:23;9.40;99.90
20700;DHT22;10511;51.232;9.420;2023-03-14T07:55:52;9.40;99.90
20700;DHT22;10511;51.232;9.420;2023-03-14T07:58:19;9.30;99.90
20700;DHT22;10511;51.232;9.420;2023-03-14T08:00:47;9.30;99.90
20700;DHT22;10511;51.232;9.420;2023-03-14T08:03:14;9.30;99.90
20700;DHT22;10511;51.232;9.420;2023-03-14T08:05:42;9.40;99.90
20700;DHT22;10511;51.232;9.420;2023-03-14T08:08:08;9.30;99.90
20700;DHT22;10511;51.232;9.420;2023-03-14T08:10:35;9.40;99.90
20700;DHT22;10511;51.232;9.420;2023-03-14T08:13:03;9.40;99.90
20700;DHT22;10511;51.232;9.420;2023-03-14T08:15:31;9.40;99.90
20700;DHT22;10511;51.232;9.420;2023-03-14T08:17:58;9.40;99.90
20700;DHT22;10511;51.232;9.420;2023-03-14T08:20:27;9.40;99.90
20700;DHT22;10511;51.232;9.420;2023-03-14T08:22:55;9.50;99.90
20700;DHT22;10511;51.232;9.420;2023-03-14T08:25:23;9.50;99.90
20700;DHT22;10511;51.232;9.420;2023-03-14T08:27:50;9.50;99.90
20700;DHT22;10511;51.232;9.420;2023-03-14T08:30:20;9.50;99.90
20700;DHT22;10511;51.232;9.420;2023-03-14T08:32:47;9.50;99.90
20700;DHT22;10511;51.232;9.420;2023-03-14T08:35:14;9.60;99.90
20700;DHT22;10511;51.232;9.420;2023-03-14T08:37:41;9.60;99.90
20700;DHT22;10511;51.232;9.420;2023-03-14T08:40:09;9.70;99.90
20700;DHT22;10511;51.232;9.420;2023-03-14T08:42:37;9.70;99.90
20700;DHT22;10511;51.232;9.420;2023-03-14T08:45:06;9.70;99.90
20700;DHT22;10511;51.232;9.420;2023-03-14T08:47:35;9.70;99.90
20700;DHT22;10511;51.232;9.420;2023-03-14T08:50:02;9.70;99.90
20700;DHT22;10511;51.232;9.420;2023-03-14T08:52:29;9.80;99.90
20700;DHT22;10511;51.232;9.420;2023-03-14T08:54:57;9.80;99.90
20700;DHT22;10511;51.232;9.420;2023-03-14T08:57:24;9.90;99.90
20700;DHT22;10511;51.232;9.420;2023-03-14T08:59:53;9.90;99.90
20700;DHT22;10511;51.232;9.420;2023-03-14T09:02:20;9.90;99.90
20700;DHT22;10511;51.232;9.420;2023-03-14T09:04:49;9.90;99.90
20700;DHT22;10511;51.232;9.420;2023-03-14T09:07:17;9.80;99.90
20700;DHT22;10511;51.232;9.420;2023-03-14T09:09:43;9.80;99.90
20700;DHT22;10511;51.232;9.420;2023-03-14T09:12:11;9.80;99.90
20700;DHT22;10511;51.232;9.420;2023-03-14T09:14:38;9.80;99.90
20700;DHT22;10511;51.232;9.420;2023-03-14T09:17:05;9.80;99.90
20700;DHT22;10511;51.232;9.420;2023-03-14T09:19:31;9.80;99.90
20700;DHT22;10511;51.232;9.420;2023-03-14T09:22:00;9.70;99.90
20700;DHT22;10511;51.232;9.420;2023-03-14T09:24:26;9.70;99.90
20700;DHT22;10511;51.232;9.420;2023-03-14T09:26:54;9.60;99.90
20700;DHT22;10511;51.232;9.420;2023-03-14T09:29:21;9.50;99.90
20700;DHT22;10511;51.232;9.420;2023-03-14T09:31:48;9.50;99.90
20700;DHT22;10511;51.232;9.420;2023-03-14T09:34:15;9.50;99.90
20700;DHT22;10511;51.232;9.420;2023-03-14T09:36:42;9.40;99.90
20700;DHT22;10511;51.232;9.420;2023-03-14T09:39:11;9.50;99.90
20700;DHT22;10511;51.232;9.420;2023-03-14T09:41:39;9.60;99.90
20700;DHT22;10511;51.232;9.420;2023-03-14T09:44:10;9.70;99.90
20700;DHT22;10511;51.232;9.420;2023-03-14T09:46:42;9.70;99.90
20700;DHT22;10511;51.232;9.420;2023-03-14T09:49:12;9.70;99.90
20700;DHT22;10511;51.232;9.420;2023-03-14T09:51:41;9.80;99.90
20700;DHT22;10511;51.232;9.420;2023-03-14T09:54:22;9.80;99.90
20700;DHT22;10511;51.232;9.420;2023-03-14T09:56:51;9.90;99.90
20700;DHT22;10511;51.232;9.420;2023-03-14T09:59:18;9.90;99.90
20700;DHT22;10511;51.232;9.420;2023-03-14T10:01:45;9.90;99.90
20700;DHT22;10511;51.232;9.420;2023-03-14T10:04:15;10.00;99.90
20700;DHT22;10511;51.232;9.420;2023-03-14T10:06:43;10.10;99.90
20700;DHT22;10511;51.232;9.420;2023-03-14T10:09:17;10.00;99.90
20700;DHT22;10511;51.232;9.420;2023-03-14T10:11:46;10.00;99.90
20700;DHT22;10511;51.232;9.420;2023-03-14T10:14:30;10.00;99.90
20700;DHT22;10511;51.232;9.420;2023-03-14T10:17:05;10.00;99.90
20700;DHT22;10511;51.232;9.420;2023-03-14T10:19:34;10.00;99.90
20700;DHT22;10511;51.232;9.420;2023-03-14T10:22:03;10.10;99.90
20700;DHT22;10511;51.232;9.420;2023-03-14T10:24:31;10.20;99.90
20700;DHT22;10511;51.232;9.420;2023-03-14T10:27:01;10.30;99.90
20700;DHT22;10511;51.232;9.420;2023-03-14T10:29:29;10.40;99.90
20700;DHT22;10511;51.232;9.420;2023-03-14T10:31:59;10.30;99.90
20700;DHT22;10511;51.232;9.420;2023-03-14T10:34:29;10.30;99.90
20700;DHT22;10511;51.232;9.420;2023-03-14T10:36:58;10.20;99.90
20700;DHT22;10511;51.232;9.420;2023-03-14T10:39:29;10.20;99.90
20700;DHT22;10511;51.232;9.420;2023-03-14T10:42:04;10.10;99.90
20700;DHT22;10511;51.232;9.420;2023-03-14T10:44:34;10.20;99.90
20700;DHT22;10511;51.232;9.420;2023-03-14T10:47:02;10.20;99.90
20700;DHT22;10511;51.232;9.420;2023-03-14T10:49:30;10.30;99.90
20700;DHT22;10511;51.232;9.420;2023-03-14T10:52:02;10.30;99.90
20700;DHT22;10511;51.232;9.420;2023-03-14T10:54:30;10.30;99.90
20700;DHT22;10511;51.232;9.420;2023-03-14T10:56:58;10.20;99.90
20700;DHT22;10511;51.232;9.420;2023-03-14T10:59:35;10.30;99.90
20700;DHT22;10511;51.232;9.420;2023-03-14T11:02:10;10.30;99.90
20700;DHT22;10511;51.232;9.420;2023-03-14T11:04:55;10.40;99.90
20700;DHT22;10511;51.232;9.420;2023-03-14T11:07:28;10.50;99.90
20700;DHT22;10511;51.232;9.420;2023-03-14T11:10:02;10.50;99.90
20700;DHT22;10511;51.232;9.420;2023-03-14T11:12:41;10.60;99.90
20700;DHT22;10511;51.232;9.420;2023-03-14T11:15:15;10.70;99.90
20700;DHT22;10511;51.232;9.420;2023-03-14T11:17:53;10.80;99.90
20700;DHT22;10511;51.232;9.420;2023-03-14T11:20:33;10.80;99.90
20700;DHT22;10511;51.232;9.420;2023-03-14T11:23:07;10.90;99.90
20700;DHT22;10511;51.232;9.420;2023-03-14T11:25:43;10.90;99.90
20700;DHT22;10511;51.232;9.420;2023-03-14T11:28:18;10.90;99.90
20700;DHT22;10511;51.232;9.420;2023-03-14T11:30:52;10.90;99.90
20700;DHT22;10511;51.232;9.420;2023-03-14T11:33:24;11.00;99.90
20700;DHT22;10511;51.232;9.420;2023-03-14T11:35:58;10.80;99.90
20700;DHT22;10511;51.232;9.420;2023-03-14T11:38:32;10.80;99.90
20700;DHT22;10511;51.232;9.420;2023-03-14T11:41:01;10.60;99.90
20700;DHT22;10511;51.232;9.420;2023-03-14T11:43:29;10.50;99.90
20700;DHT22;10511;51.232;9.420;2023-03-14T11:46:03;10.50;99.90
20700;DHT22;10511;51.232;9.420;2023-03-14T11:48:36;10.40;99.90
20700;DHT22;10511;51.232;9.420;2023-03-14T11:51:10;10.30;99.90
20700;DHT22;10511;51.232;9.420;2023-03-14T11:53:58;10.20;99.90
20700;DHT22;10511;51.232;9.420;2023-03-14T11:56:31;10.20;99.90
20700;DHT22;10511;51.232;9.420;2023-03-14T11:59:03;10.20;99.90
20700;DHT22;10511;51.232;9.420;2023-03-14T12:01:45;10.10;99.90
20700;DHT22;10511;51.232;9.420;2023-03-14T12:04:20;10.10;99.90
20700;DHT22;10511;51.232;9.420;2023-03-14T12:06:50;10.10;99.90
20700;DHT22;10511;51.232;9.420;2023-03-14T12:09:18;10.20;99.90
20700;DHT22;10511;51.232;9.420;2023-03-14T12:11:48;10.20;99.90
20700;DHT22;10511;51.232;9.420;2023-03-14T12:14:21;10.20;99.90
20700;DHT22;10511;51.232;9.420;2023-03-14T12:16:54;10.10;99.90
20700;DHT22;10511;51.232;9.420;2023-03-14T12:19:37;9.90;99.90
20700;DHT22;10511;51.232;9.420;2023-03-14T12:22:19;9.80;99.90
20700;DHT22;10511;51.232;9.420;2023-03-14T12:24:51;9.00;99.90
20700;DHT22;10511;51.232;9.420;2023-03-14T12:27:49;8.50;99.90
20700;DHT22;10511;51.232;9.420;2023-03-14T12:30:31;8.40;99.90
20700;DHT22;10511;51.232;9.420;2023-03-14T12:36:01;8.40;99.90
20700;DHT22;10511;51.232;9.420;2023-03-14T12:38:45;8.30;99.90
20700;DHT22;10511;51.232;9.420;2023-03-14T12:41:17;8.40;99.90
20700;DHT22;10511;51.232;9.420;2023-03-14T12:43:47;8.30;99.90
20700;DHT22;10511;51.232;9.420;2023-03-14T12:46:23;8.30;99.90
20700;DHT22;10511;51.232;9.420;2023-03-14T12:48:54;8.20;99.90
20700;DHT22;10511;51.232;9.420;2023-03-14T12:51:29;8.20;99.90
20700;DHT22;10511;51.232;9.420;2023-03-14T12:54:22;8.10;99.90
20700;DHT22;10511;51.232;9.420;2023-03-14T12:57:17;8.10;99.90
20700;DHT22;10511;51.232;9.420;2023-03-14T12:59:47;8.10;99.90
20700;DHT22;10511;51.232;9.420;2023-03-14T13:02:23;8.10;99.90
20700;DHT22;10511;51.232;9.420;2023-03-14T13:04:52;7.90;99.90
20700;DHT22;10511;51.232;9.420;2023-03-14T13:07:35;7.80;99.90
20700;DHT22;10511;51.232;9.420;2023-03-14T13:10:21;7.70;99.90
20700;DHT22;10511;51.232;9.420;2023-03-14T13:12:50;7.50;99.90
20700;DHT22;10511;51.232;9.420;2023-03-14T13:15:21;7.40;99.90
20700;DHT22;10511;51.232;9.420;2023-03-14T13:17:50;7.20;99.90
20700;DHT22;10511;51.232;9.420;2023-03-14T13:20:21;7.00;99.90
20700;DHT22;10511;51.232;9.420;2023-03-14T13:22:50;6.90;99.90
20700;DHT22;10511;51.232;9.420;2023-03-14T13:25:17;6.80;99.90
20700;DHT22;10511;51.232;9.420;2023-03-14T13:27:47;6.60;99.90
20700;DHT22;10511;51.232;9.420;2023-03-14T13:30:17;6.50;99.90
20700;DHT22;10511;51.232;9.420;2023-03-14T13:32:47;6.30;99.90
20700;DHT22;10511;51.232;9.420;2023-03-14T13:35:16;6.30;99.90
20700;DHT22;10511;51.232;9.420;2023-03-14T13:37:43;6.10;99.90
20700;DHT22;10511;51.232;9.420;2023-03-14T13:40:23;6.00;99.90
20700;DHT22;10511;51.232;9.420;2023-03-14T13:43:10;6.10;99.90
20700;DHT22;10511;51.232;9.420;2023-03-14T13:45:44;5.80;99.90
20700;DHT22;10511;51.232;9.420;2023-03-14T13:48:12;5.60;99.90
20700;DHT22;10511;51.232;9.420;2023-03-14T13:50:45;5.50;99.90
20700;DHT22;10511;51.232;9.420;2023-03-14T13:53:12;5.50;99.90
20700;DHT22;10511;51.232;9.420;2023-03-14T13:55:41;5.40;99.90
20700;DHT22;10511;51.232;9.420;2023-03-14T13:58:18;5.10;99.90
20700;DHT22;10511;51.232;9.420;2023-03-14T14:01:01;5.00;99.90
20700;DHT22;10511;51.232;9.420;2023-03-14T14:03:31;4.90;99.90
20700;DHT22;10511;51.232;9.420;2023-03-14T14:05:58;4.90;99.90
20700;DHT22;10511;51.232;9.420;2023-03-14T14:08:26;4.90;99.90
20700;DHT22;10511;51.232;9.420;2023-03-14T14:10:57;4.90;99.90
20700;DHT22;10511;51.232;9.420;2023-03-14T14:13:29;5.00;99.90
20700;DHT22;10511;51.232;9.420;2023-03-14T14:16:00;5.10;99.90
20700;DHT22;10511;51.232;9.420;2023-03-14T14:18:29;5.00;99.90
20700;DHT22;10511;51.232;9.420;2023-03-14T14:20:58;5.10;99.90
20700;DHT22;10511;51.232;9.420;2023-03-14T14:23:26;5.30;99.90
20700;DHT22;10511;51.232;9.420;2023-03-14T14:25:56;5.30;99.90
20700;DHT22;10511;51.232;9.420;2023-03-14T14:28:26;5.30;99.90
20700;DHT22;10511;51.232;9.420;2023-03-14T14:31:03;5.40;99.90
20700;DHT22;10511;51.232;9.420;2023-03-14T14:33:38;5.20;99.90
20700;DHT22;10511;51.232;9.420;2023-03-14T14:36:14;5.30;99.90
20700;DHT22;10511;51.232;9.420;2023-03-14T14:38:41;5.20;99.90
20700;DHT22;10511;51.232;9.420;2023-03-14T14:41:11;5.10;99.90
20700;DHT22;10511;51.232;9.420;2023-03-14T14:43:39;5.20;99.90
20700;DHT22;10511;51.232;9.420;2023-03-14T14:46:08;5.20;99.90
20700;DHT22;10511;51.232;9.420;2023-03-14T14:48:37;5.20;99.90
20700;DHT22;10511;51.232;9.420;2023-03-14T14:51:06;5.20;99.90
20700;DHT22;10511;51.232;9.420;2023-03-14T14:53:37;5.20;99.90
20700;DHT22;10511;51.232;9.420;2023-03-14T14:56:06;5.30;99.90
20700;DHT22;10511;51.232;9.420;2023-03-14T14:58:36;5.30;99.90
20700;DHT22;10511;51.232;9.420;2023-03-14T15:01:10;5.40;99.90
20700;DHT22;10511;51.232;9.420;2023-03-14T15:03:38;5.40;99.90
20700;DHT22;10511;51.232;9.420;2023-03-14T15:06:05;5.50;99.90
20700;DHT22;10511;51.232;9.420;2023-03-14T15:08:32;5.60;99.90
20700;DHT22;10511;51.232;9.420;2023-03-14T15:10:59;5.60;99.90
20700;DHT22;10511;51.232;9.420;2023-03-14T15:13:25;5.60;99.90
20700;DHT22;10511;51.232;9.420;2023-03-14T15:15:54;5.50;99.90
20700;DHT22;10511;51.232;9.420;2023-03-14T15:18:22;5.50;99.90
20700;DHT22;10511;51.232;9.420;2023-03-14T15:20:50;5.60;99.90
20700;DHT22;10511;51.232;9.420;2023-03-14T15:23:19;5.60;99.90
20700;DHT22;10511;51.232;9.420;2023-03-14T15:25:46;5.50;99.90
20700;DHT22;10511;51.232;9.420;2023-03-14T15:28:16;5.30;99.90
20700;DHT22;10511;51.232;9.420;2023-03-14T15:30:45;5.10;99.90
20700;DHT22;10511;51.232;9.420;2023-03-14T15:33:14;5.00;99.90
20700;DHT22;10511;51.232;9.420;2023-03-14T15:35:41;4.90;99.90
20700;DHT22;10511;51.232;9.420;2023-03-14T15:38:10;4.90;99.90
20700;DHT22;10511;51.232;9.420;2023-03-14T15:40:46;5.00;99.90
20700;DHT22;10511;51.232;9.420;2023-03-14T15:43:13;5.00;99.90
20700;DHT22;10511;51.232;9.420;2023-03-14T15:45:40;5.00;99.90
20700;DHT22;10511;51.232;9.420;2023-03-14T15:48:14;5.00;99.90
20700;DHT22;10511;51.232;9.420;2023-03-14T15:50:41;4.90;99.90
20700;DHT22;10511;51.232;9.420;2023-03-14T15:53:08;5.00;99.90
20700;DHT22;10511;51.232;9.420;2023-03-14T15:55:35;5.10;99.90
20700;DHT22;10511;51.232;9.420;2023-03-14T15:58:02;5.10;99.90
20700;DHT22;10511;51.232;9.420;2023-03-14T16:00:30;5.10;99.90
20700;DHT22;10511;51.232;9.420;2023-03-14T16:02:57;5.00;99.90